Liverpool, United Kingdom
Current Conditions -  °F | °C
As of 4:20 AM on Tuesday 23 Dec 2014 (Local Time) from EGGP Reporting Station
Broken Clouds Broken Clouds  
Wind Chill: 54°   Ceiling: 1900
Heat Index: 54°   Visibility: 6mi
Dew Point: 46°   Wind: 22mph
Humidity: 77%   Direction: 230°SW
Pressure: 29.85"   Gusts: NA
Location:  53.41°N, 2.98°W
Report Text: EGGP 230420Z 23019KT 9999 BKN019 12/08 Q1011
Loading
Personal Weather Stations






























Interactive Weather Map New forecast layout! Learn more

10-Day Weather Forecast

Advertisements
Track Severe Weather on mobile